sensor_id;sensor_type;location;lat;lon;timestamp;P1;P2;P0
76043;PMS7003;64740;34.694;33.088;2023-03-14T00:03:32;2.9;2.2;1.6
76043;PMS7003;64740;34.694;33.088;2023-03-14T00:09:02;2.3;1.6;1.2
76043;PMS7003;64740;34.694;33.088;2023-03-14T00:14:02;2;1.9;1.5
76043;PMS7003;64740;34.694;33.088;2023-03-14T00:18:33;2.9;2.5;1.9
76043;PMS7003;64740;34.694;33.088;2023-03-14T00:24:14;2.2;1.8;1.6
76043;PMS7003;64740;34.694;33.088;2023-03-14T00:29:12;2.7;2.2;1.8
76043;PMS7003;64740;34.694;33.088;2023-03-14T00:33:43;2.7;2.2;1.7
76043;PMS7003;64740;34.694;33.088;2023-03-14T00:39:00;2.1;1.9;1.5
76043;PMS7003;64740;34.694;33.088;2023-03-14T00:44:12;2.4;2.1;1.8
76043;PMS7003;64740;34.694;33.088;2023-03-14T00:48:43;2.9;2.4;1.8
76043;PMS7003;64740;34.694;33.088;2023-03-14T00:53:35;2.5;2.1;1.5
76043;PMS7003;64740;34.694;33.088;2023-03-14T00:59:12;2.2;2.1;1.7
76043;PMS7003;64740;34.694;33.088;2023-03-14T01:04:14;2.3;1.8;1.4
76043;PMS7003;64740;34.694;33.088;2023-03-14T01:08:32;2.8;2;1.6
76043;PMS7003;64740;34.694;33.088;2023-03-14T01:13:32;2.2;1.9;1.6
76043;PMS7003;64740;34.694;33.088;2023-03-14T01:19:14;2.6;2.3;1.8
76043;PMS7003;64740;34.694;33.088;2023-03-14T01:24:05;2.4;2.3;1.8
76043;PMS7003;64740;34.694;33.088;2023-03-14T01:28:42;2.7;2.2;1.7
76043;PMS7003;64740;34.694;33.088;2023-03-14T01:33:54;2.8;2.5;1.9
76043;PMS7003;64740;34.694;33.088;2023-03-14T01:39:00;2.3;2.2;1.8
76043;PMS7003;64740;34.694;33.088;2023-03-14T01:43:33;2.8;2.2;1.9
76043;PMS7003;64740;34.694;33.088;2023-03-14T01:48:58;2.4;2.2;1.7
76043;PMS7003;64740;34.694;33.088;2023-03-14T01:54:16;2.3;1.8;1.5
76043;PMS7003;64740;34.694;33.088;2023-03-14T01:58:33;2.8;2.1;1.5
76043;PMS7003;64740;34.694;33.088;2023-03-14T02:04:14;2.8;2.4;1.8
76043;PMS7003;64740;34.694;33.088;2023-03-14T02:08:56;2.5;1.9;1.7
76043;PMS7003;64740;34.694;33.088;2023-03-14T02:13:43;3.1;2.4;2
76043;PMS7003;64740;34.694;33.088;2023-03-14T02:19:00;2.3;2.2;1.6
76043;PMS7003;64740;34.694;33.088;2023-03-14T02:24:09;2.5;2.1;1.7
76043;PMS7003;64740;34.694;33.088;2023-03-14T02:28:32;2.7;2.5;2
76043;PMS7003;64740;34.694;33.088;2023-03-14T02:33:46;2.3;2.2;1.8
76043;PMS7003;64740;34.694;33.088;2023-03-14T02:39:15;3.2;2.7;2.3
76043;PMS7003;64740;34.694;33.088;2023-03-14T02:43:44;3.3;2.7;2
76043;PMS7003;64740;34.694;33.088;2023-03-14T02:49:14;3;2.1;1.7
76043;PMS7003;64740;34.694;33.088;2023-03-14T02:54:15;2.4;2;1.6
76043;PMS7003;64740;34.694;33.088;2023-03-14T02:59:10;3.4;2.6;1.9
76043;PMS7003;64740;34.694;33.088;2023-03-14T03:03:46;2.4;2.2;1.7
76043;PMS7003;64740;34.694;33.088;2023-03-14T03:08:42;3.1;2.4;1.8
76043;PMS7003;64740;34.694;33.088;2023-03-14T03:14:00;3.1;2.5;1.9
76043;PMS7003;64740;34.694;33.088;2023-03-14T03:19:01;3;2.5;2
76043;PMS7003;64740;34.694;33.088;2023-03-14T03:23:42;2.7;2.2;1.9
76043;PMS7003;64740;34.694;33.088;2023-03-14T03:29:15;2.7;2.3;1.8
76043;PMS7003;64740;34.694;33.088;2023-03-14T03:34:15;3.1;2.6;2
76043;PMS7003;64740;34.694;33.088;2023-03-14T03:38:32;3.3;2.7;2.2
76043;PMS7003;64740;34.694;33.088;2023-03-14T03:43:44;2.4;2.1;1.6
76043;PMS7003;64740;34.694;33.088;2023-03-14T03:49:00;3.2;2.6;2
76043;PMS7003;64740;34.694;33.088;2023-03-14T03:53:47;2.5;2.4;1.9
76043;PMS7003;64740;34.694;33.088;2023-03-14T03:58:47;2.5;2.4;2
76043;PMS7003;64740;34.694;33.088;2023-03-14T04:04:06;3.1;2.7;2.1
76043;PMS7003;64740;34.694;33.088;2023-03-14T04:08:43;3.9;2.8;2.3
76043;PMS7003;64740;34.694;33.088;2023-03-14T04:14:15;2.8;2.6;2.2
76043;PMS7003;64740;34.694;33.088;2023-03-14T04:18:54;3.3;2.8;2.4
76043;PMS7003;64740;34.694;33.088;2023-03-14T04:24:15;3.1;2.8;2.3
76043;PMS7003;64740;34.694;33.088;2023-03-14T04:28:47;3.1;2.6;2.1
76043;PMS7003;64740;34.694;33.088;2023-03-14T04:33:33;3.7;3.1;2.6
76043;PMS7003;64740;34.694;33.088;2023-03-14T04:38:55;3.5;3;2.5
76043;PMS7003;64740;34.694;33.088;2023-03-14T04:43:41;3.2;2.7;2.2
76043;PMS7003;64740;34.694;33.088;2023-03-14T04:48:43;3.4;3;2.4
76043;PMS7003;64740;34.694;33.088;2023-03-14T04:53:55;3.3;2.8;2.3
76043;PMS7003;64740;34.694;33.088;2023-03-14T04:59:15;2.8;2.8;2.3
76043;PMS7003;64740;34.694;33.088;2023-03-14T05:03:45;4.4;3.4;2.5
76043;PMS7003;64740;34.694;33.088;2023-03-14T05:09:13;3.6;3.2;2.5
76043;PMS7003;64740;34.694;33.088;2023-03-14T05:13:57;3.6;3.2;2.6
76043;PMS7003;64740;34.694;33.088;2023-03-14T05:18:43;3.9;3.4;2.7
76043;PMS7003;64740;34.694;33.088;2023-03-14T05:24:01;3.2;2.5;1.9
76043;PMS7003;64740;34.694;33.088;2023-03-14T05:29:09;3.9;3.2;2.6
76043;PMS7003;64740;34.694;33.088;2023-03-14T05:33:41;3.4;2.9;2.2
76043;PMS7003;64740;34.694;33.088;2023-03-14T05:38:59;3.1;3;2.4
76043;PMS7003;64740;34.694;33.088;2023-03-14T05:44:13;3.1;2.5;2.1
76043;PMS7003;64740;34.694;33.088;2023-03-14T05:49:09;3.6;3;2.3
76043;PMS7003;64740;34.694;33.088;2023-03-14T05:54:13;3.7;3;2.5
76043;PMS7003;64740;34.694;33.088;2023-03-14T05:59:15;3.7;3.1;2.3
76043;PMS7003;64740;34.694;33.088;2023-03-14T06:04:07;3.5;3;2.4
76043;PMS7003;64740;34.694;33.088;2023-03-14T06:08:57;4;3;2.1
76043;PMS7003;64740;34.694;33.088;2023-03-14T06:13:33;4.4;3.7;3
76043;PMS7003;64740;34.694;33.088;2023-03-14T06:19:01;5;4.1;3.1
76043;PMS7003;64740;34.694;33.088;2023-03-14T06:24:01;4.3;3.6;2.8
76043;PMS7003;64740;34.694;33.088;2023-03-14T06:28:33;4.3;3.6;2.9
76043;PMS7003;64740;34.694;33.088;2023-03-14T06:34:15;5.2;4.7;3.4
76043;PMS7003;64740;34.694;33.088;2023-03-14T06:39:13;4.5;3.9;3.2
76043;PMS7003;64740;34.694;33.088;2023-03-14T06:43:43;5;4.1;3.2
76043;PMS7003;64740;34.694;33.088;2023-03-14T06:48:43;5.1;4.1;3.4
76043;PMS7003;64740;34.694;33.088;2023-03-14T06:54:01;6.3;4.9;3.8
76043;PMS7003;64740;34.694;33.088;2023-03-14T06:58:33;5.5;4.1;3.1
76043;PMS7003;64740;34.694;33.088;2023-03-14T07:03:45;20.6;13.7;7.3
76043;PMS7003;64740;34.694;33.088;2023-03-14T07:08:57;40.6;25.1;11.1
76043;PMS7003;64740;34.694;33.088;2023-03-14T07:13:37;11.5;8.2;4.8
76043;PMS7003;64740;34.694;33.088;2023-03-14T07:19:15;6.3;5.3;4
76043;PMS7003;64740;34.694;33.088;2023-03-14T07:23:43;6.4;4.6;3.6
76043;PMS7003;64740;34.694;33.088;2023-03-14T07:29:15;5.6;4.3;3.1
76043;PMS7003;64740;34.694;33.088;2023-03-14T07:34:01;5.5;4.2;3.3
76043;PMS7003;64740;34.694;33.088;2023-03-14T07:39:15;4.4;4;3
76043;PMS7003;64740;34.694;33.088;2023-03-14T07:43:43;4.2;3.3;2.6
76043;PMS7003;64740;34.694;33.088;2023-03-14T07:49:01;4.3;3.5;2.7
76043;PMS7003;64740;34.694;33.088;2023-03-14T07:53:33;5.1;4.4;3.5
76043;PMS7003;64740;34.694;33.088;2023-03-14T07:58:43;4.4;3.8;2.9
76043;PMS7003;64740;34.694;33.088;2023-03-14T08:04:01;4.5;3.7;3
76043;PMS7003;64740;34.694;33.088;2023-03-14T08:08:43;9.2;6.2;4
76043;PMS7003;64740;34.694;33.088;2023-03-14T08:14:15;4.7;3.4;2.6
76043;PMS7003;64740;34.694;33.088;2023-03-14T08:19:09;5.4;3.9;2.6
76043;PMS7003;64740;34.694;33.088;2023-03-14T08:23:45;4.8;3.6;2.7
76043;PMS7003;64740;34.694;33.088;2023-03-14T08:28:59;5;4.4;3.2
76043;PMS7003;64740;34.694;33.088;2023-03-14T08:49:11;3.9;3.9;3
76043;PMS7003;64740;34.694;33.088;2023-03-14T08:53:53;8;5.8;4.1
76043;PMS7003;64740;34.694;33.088;2023-03-14T08:59:15;5.8;4.1;3.4
76043;PMS7003;64740;34.694;33.088;2023-03-14T09:04:15;6.4;5;3.8
76043;PMS7003;64740;34.694;33.088;2023-03-14T09:09:09;7.4;6;4
76043;PMS7003;64740;34.694;33.088;2023-03-14T09:13:47;14.8;9.9;5.4
76043;PMS7003;64740;34.694;33.088;2023-03-14T09:18:33;5.6;4.9;3.7
76043;PMS7003;64740;34.694;33.088;2023-03-14T09:24:01;12.3;8;4.6
76043;PMS7003;64740;34.694;33.088;2023-03-14T09:29:01;9.9;7.7;4.9
76043;PMS7003;64740;34.694;33.088;2023-03-14T09:33:55;5.6;4.2;2.9
76043;PMS7003;64740;34.694;33.088;2023-03-14T09:39:03;12.5;8.6;5.3
76043;PMS7003;64740;34.694;33.088;2023-03-14T09:44:15;21.7;14.2;7
76043;PMS7003;64740;34.694;33.088;2023-03-14T09:48:43;37.9;22.2;9.2
76043;PMS7003;64740;34.694;33.088;2023-03-14T09:53:34;9.1;6.4;4.1
76043;PMS7003;64740;34.694;33.088;2023-03-14T09:59:15;4.8;3.6;2.5
76043;PMS7003;64740;34.694;33.088;2023-03-14T10:03:33;4.5;3.5;2.5
76043;PMS7003;64740;34.694;33.088;2023-03-14T10:09:09;7.5;5.8;3.5
76043;PMS7003;64740;34.694;33.088;2023-03-14T10:14:09;12.5;8.8;4.6
76043;PMS7003;64740;34.694;33.088;2023-03-14T10:18:33;3.5;3.1;2.5
76043;PMS7003;64740;34.694;33.088;2023-03-14T10:24:19;4;3.6;2.9
76043;PMS7003;64740;34.694;33.088;2023-03-14T10:29:01;3.8;3.8;3.2
76043;PMS7003;64740;34.694;33.088;2023-03-14T10:34:16;4.4;3.4;2.6
76043;PMS7003;64740;34.694;33.088;2023-03-14T10:39:15;5.9;4.3;3.5
76043;PMS7003;64740;34.694;33.088;2023-03-14T10:44:15;5.7;5;4
76043;PMS7003;64740;34.694;33.088;2023-03-14T10:48:55;5.8;4.5;3.6
76043;PMS7003;64740;34.694;33.088;2023-03-14T10:54:02;5.4;4.6;3.5
76043;PMS7003;64740;34.694;33.088;2023-03-14T10:58:49;4.5;4;3
76043;PMS7003;64740;34.694;33.088;2023-03-14T11:04:13;4.3;3.8;2.9
76043;PMS7003;64740;34.694;33.088;2023-03-14T11:08:45;5;4.4;3.3
76043;PMS7003;64740;34.694;33.088;2023-03-14T11:13:44;5.2;4.9;3.8
76043;PMS7003;64740;34.694;33.088;2023-03-14T11:19:16;10.6;9.9;7.5
76043;PMS7003;64740;34.694;33.088;2023-03-14T11:23:44;8.9;7.4;5.7
76043;PMS7003;64740;34.694;33.088;2023-03-14T11:28:34;5.7;5.6;4.2
76043;PMS7003;64740;34.694;33.088;2023-03-14T11:34:15;5.3;4.6;3.7
76043;PMS7003;64740;34.694;33.088;2023-03-14T11:38:34;6;5.1;4
76043;PMS7003;64740;34.694;33.088;2023-03-14T11:43:34;7.1;5.7;4.2
76043;PMS7003;64740;34.694;33.088;2023-03-14T11:49:01;6.7;5.2;4.1
76043;PMS7003;64740;34.694;33.088;2023-03-14T11:53:58;5.1;4.5;3.1
76043;PMS7003;64740;34.694;33.088;2023-03-14T11:58:33;4.9;4;3.2
76043;PMS7003;64740;34.694;33.088;2023-03-14T12:04:02;5;4.6;3.7
76043;PMS7003;64740;34.694;33.088;2023-03-14T12:09:15;7.8;6.1;4.7
76043;PMS7003;64740;34.694;33.088;2023-03-14T12:14:17;7.5;6.3;4.8
76043;PMS7003;64740;34.694;33.088;2023-03-14T12:18:33;7.7;6.4;5
76043;PMS7003;64740;34.694;33.088;2023-03-14T12:23:44;7.6;6.3;5.1
76043;PMS7003;64740;34.694;33.088;2023-03-14T12:29:10;7;6.6;4.8
76043;PMS7003;64740;34.694;33.088;2023-03-14T12:34:01;7;6.2;4.9
76043;PMS7003;64740;34.694;33.088;2023-03-14T12:38:45;6.8;5.9;4.8
76043;PMS7003;64740;34.694;33.088;2023-03-14T12:44:37;7.2;6;4.7
76043;PMS7003;64740;34.694;33.088;2023-03-14T12:49:11;8.1;7.2;5.7
76043;PMS7003;64740;34.694;33.088;2023-03-14T12:54:21;9.1;8.2;6.6
76043;PMS7003;64740;34.694;33.088;2023-03-14T12:59:02;7.3;7.1;5.4
76043;PMS7003;64740;34.694;33.088;2023-03-14T13:03:57;5.9;5.6;4.4
76043;PMS7003;64740;34.694;33.088;2023-03-14T13:08:35;12.5;9.2;6.5
76043;PMS7003;64740;34.694;33.088;2023-03-14T13:13:48;9.3;7.5;5.7
76043;PMS7003;64740;34.694;33.088;2023-03-14T13:19:09;10.2;8;5.8
76043;PMS7003;64740;34.694;33.088;2023-03-14T13:23:34;8.7;7.3;5.7
76043;PMS7003;64740;34.694;33.088;2023-03-14T13:29:16;8.1;6.6;5
76043;PMS7003;64740;34.694;33.088;2023-03-14T13:33:57;7.5;6.4;5.1
76043;PMS7003;64740;34.694;33.088;2023-03-14T13:39:17;9.2;7.7;6
76043;PMS7003;64740;34.694;33.088;2023-03-14T13:44:02;7.8;7;5.5
76043;PMS7003;64740;34.694;33.088;2023-03-14T13:49:18;8.7;7.9;5.7
76043;PMS7003;64740;34.694;33.088;2023-03-14T13:54:15;10.8;9.3;7.2
76043;PMS7003;64740;34.694;33.088;2023-03-14T13:59:01;9.7;8.5;6.2
76043;PMS7003;64740;34.694;33.088;2023-03-14T14:03:41;8.5;7.5;5.8
76043;PMS7003;64740;34.694;33.088;2023-03-14T14:09:10;8;6.9;5.5
76043;PMS7003;64740;34.694;33.088;2023-03-14T14:13:33;8;6.8;5.1
76043;PMS7003;64740;34.694;33.088;2023-03-14T14:18:43;8.3;7.4;5.6
76043;PMS7003;64740;34.694;33.088;2023-03-14T14:24:15;7.7;6.8;5.6
76043;PMS7003;64740;34.694;33.088;2023-03-14T14:28:59;7.8;6.4;5.3
76043;PMS7003;64740;34.694;33.088;2023-03-14T14:33:44;10.3;9.1;6.6
76043;PMS7003;64740;34.694;33.088;2023-03-14T14:39:16;14.1;12.8;9.5
76043;PMS7003;64740;34.694;33.088;2023-03-14T14:43:53;11.7;10.2;7.4
76043;PMS7003;64740;34.694;33.088;2023-03-14T14:48:35;8.6;7.3;5.5
76043;PMS7003;64740;34.694;33.088;2023-03-14T14:54:02;7.8;7.1;5.3
76043;PMS7003;64740;34.694;33.088;2023-03-14T14:59:18;8.5;8;6.3
76043;PMS7003;64740;34.694;33.088;2023-03-14T15:03:33;8;7.1;5.5
76043;PMS7003;64740;34.694;33.088;2023-03-14T15:08:48;7.4;6.6;5.3
76043;PMS7003;64740;34.694;33.088;2023-03-14T15:14:15;7.2;6.5;4.9
76043;PMS7003;64740;34.694;33.088;2023-03-14T15:19:16;7.9;7.2;6
76043;PMS7003;64740;34.694;33.088;2023-03-14T15:23:47;8;6.9;5.2
76043;PMS7003;64740;34.694;33.088;2023-03-14T15:28:43;7.3;6.9;5.3
76043;PMS7003;64740;34.694;33.088;2023-03-14T15:34:15;7.2;6.4;5
76043;PMS7003;64740;34.694;33.088;2023-03-14T15:39:00;7.2;6.6;5.3
76043;PMS7003;64740;34.694;33.088;2023-03-14T15:43:33;8.3;7.6;5.8
76043;PMS7003;64740;34.694;33.088;2023-03-14T15:48:55;9.4;8.2;6
76043;PMS7003;64740;34.694;33.088;2023-03-14T15:54:01;10.5;9.5;6.9
76043;PMS7003;64740;34.694;33.088;2023-03-14T15:58:33;10.6;9.2;7.1
76043;PMS7003;64740;34.694;33.088;2023-03-14T16:03:43;10.9;9.2;7
76043;PMS7003;64740;34.694;33.088;2023-03-14T16:09:15;10.2;8.5;6.3
76043;PMS7003;64740;34.694;33.088;2023-03-14T16:13:33;10.8;9.4;6.9
76043;PMS7003;64740;34.694;33.088;2023-03-14T16:19:09;9;8.7;6.7
76043;PMS7003;64740;34.694;33.088;2023-03-14T16:24:09;9.5;8.6;6.5
76043;PMS7003;64740;34.694;33.088;2023-03-14T16:29:09;8.8;8.2;6.6
76043;PMS7003;64740;34.694;33.088;2023-03-14T16:34:13;9.6;8.3;6.2
76043;PMS7003;64740;34.694;33.088;2023-03-14T16:38:33;10.4;10.1;7.4
76043;PMS7003;64740;34.694;33.088;2023-03-14T16:44:17;11.6;9.9;7.7
76043;PMS7003;64740;34.694;33.088;2023-03-14T16:49:03;13.2;11.7;9.1
76043;PMS7003;64740;34.694;33.088;2023-03-14T16:54:17;12.9;12;8.5
76043;PMS7003;64740;34.694;33.088;2023-03-14T16:58:55;13.5;11.8;8.5
76043;PMS7003;64740;34.694;33.088;2023-03-14T17:04:03;13.4;11.5;8.3
76043;PMS7003;64740;34.694;33.088;2023-03-14T17:08:33;13.7;12.2;8.9
76043;PMS7003;64740;34.694;33.088;2023-03-14T17:14:09;12.2;10.9;8
76043;PMS7003;64740;34.694;33.088;2023-03-14T17:18:49;11.8;11.2;8.2
76043;PMS7003;64740;34.694;33.088;2023-03-14T17:23:39;12.6;11.1;8.6
76043;PMS7003;64740;34.694;33.088;2023-03-14T17:29:17;15;13.8;9.8
76043;PMS7003;64740;34.694;33.088;2023-03-14T17:33:55;15.7;13.8;10
76043;PMS7003;64740;34.694;33.088;2023-03-14T17:38:55;16.2;14.8;10.7
76043;PMS7003;64740;34.694;33.088;2023-03-14T17:44:17;17.7;15.8;11.3
76043;PMS7003;64740;34.694;33.088;2023-03-14T17:48:55;18.2;15.7;11.3
76043;PMS7003;64740;34.694;33.088;2023-03-14T17:53:33;20.7;17.9;13
76043;PMS7003;64740;34.694;33.088;2023-03-14T17:59:03;21.6;19.2;14
76043;PMS7003;64740;34.694;33.088;2023-03-14T18:04:15;22.3;20.1;14.1
76043;PMS7003;64740;34.694;33.088;2023-03-14T18:08:53;21.9;19.9;14.1
76043;PMS7003;64740;34.694;33.088;2023-03-14T18:13:43;20.6;18.7;13.5
76043;PMS7003;64740;34.694;33.088;2023-03-14T18:19:17;18.1;16.2;12.1
76043;PMS7003;64740;34.694;33.088;2023-03-14T18:24:15;16.1;14.4;10.5
76043;PMS7003;64740;34.694;33.088;2023-03-14T18:28:47;17.2;15.1;10.8
76043;PMS7003;64740;34.694;33.088;2023-03-14T18:34:05;16.9;15;10.9
76043;PMS7003;64740;34.694;33.088;2023-03-14T18:39:15;16.9;14.9;10.6
76043;PMS7003;64740;34.694;33.088;2023-03-14T18:43:41;15.6;13.7;10
76043;PMS7003;64740;34.694;33.088;2023-03-14T18:48:41;13.4;11.9;8.9
76043;PMS7003;64740;34.694;33.088;2023-03-14T18:53:53;14.3;12.2;8.9
76043;PMS7003;64740;34.694;33.088;2023-03-14T18:59:01;14.1;11.7;9.1
76043;PMS7003;64740;34.694;33.088;2023-03-14T19:03:41;11.7;10.6;7.6
76043;PMS7003;64740;34.694;33.088;2023-03-14T19:08:53;12.3;11.5;8.6
76043;PMS7003;64740;34.694;33.088;2023-03-14T19:14:15;12.9;12;9.2
76043;PMS7003;64740;34.694;33.088;2023-03-14T19:18:33;13.3;11.7;9
76043;PMS7003;64740;34.694;33.088;2023-03-14T19:24:16;14.2;11.8;8.6
76043;PMS7003;64740;34.694;33.088;2023-03-14T19:29:07;13.7;12.7;9.3
76043;PMS7003;64740;34.694;33.088;2023-03-14T19:33:53;14;12.9;9.8
76043;PMS7003;64740;34.694;33.088;2023-03-14T19:39:01;14.3;12.3;9.5
76043;PMS7003;64740;34.694;33.088;2023-03-14T19:44:05;13.5;11.6;8.8
76043;PMS7003;64740;34.694;33.088;2023-03-14T19:48:33;14.7;13.5;10.2
76043;PMS7003;64740;34.694;33.088;2023-03-14T19:54:01;15.2;13.7;10.2
76043;PMS7003;64740;34.694;33.088;2023-03-14T19:59:15;14.2;13;9.5
76043;PMS7003;64740;34.694;33.088;2023-03-14T20:03:53;11.8;10.8;8.3
76043;PMS7003;64740;34.694;33.088;2023-03-14T20:09:15;11.9;10.9;8
76043;PMS7003;64740;34.694;33.088;2023-03-14T20:14:13;12.6;11.2;8.3
76043;PMS7003;64740;34.694;33.088;2023-03-14T20:19:08;12.6;11.6;8.4
76043;PMS7003;64740;34.694;33.088;2023-03-14T20:23:33;12.5;10.9;8.3
76043;PMS7003;64740;34.694;33.088;2023-03-14T20:28:33;11.5;10.4;7.9
76043;PMS7003;64740;34.694;33.088;2023-03-14T20:33:35;12.2;10.4;8
76043;PMS7003;64740;34.694;33.088;2023-03-14T20:39:01;10.8;10.4;7.6
76043;PMS7003;64740;34.694;33.088;2023-03-14T20:43:33;12.6;11.7;8.7
76043;PMS7003;64740;34.694;33.088;2023-03-14T20:49:15;12.5;10.6;8.3
76043;PMS7003;64740;34.694;33.088;2023-03-14T20:53:53;10.7;9.9;7.6
76043;PMS7003;64740;34.694;33.088;2023-03-14T20:58:41;11.6;10.5;8
76043;PMS7003;64740;34.694;33.088;2023-03-14T21:03:41;12;10.6;8
76043;PMS7003;64740;34.694;33.088;2023-03-14T21:09:15;12.2;10.7;7.9
76043;PMS7003;64740;34.694;33.088;2023-03-14T21:13:33;12.3;10.7;8.1
76043;PMS7003;64740;34.694;33.088;2023-03-14T21:18:33;13.5;11.9;8.8
76043;PMS7003;64740;34.694;33.088;2023-03-14T21:24:14;13.2;11.3;8.4
76043;PMS7003;64740;34.694;33.088;2023-03-14T21:29:01;14.2;12.6;9.7
76043;PMS7003;64740;34.694;33.088;2023-03-14T21:33:37;13.3;11.6;8.5
76043;PMS7003;64740;34.694;33.088;2023-03-14T21:38:53;11.7;11.1;7.9
76043;PMS7003;64740;34.694;33.088;2023-03-14T21:44:15;14.6;12.8;9.5
76043;PMS7003;64740;34.694;33.088;2023-03-14T21:49:01;14.4;13.3;9.2
76043;PMS7003;64740;34.694;33.088;2023-03-14T21:53:41;15.1;13.9;9.8
76043;PMS7003;64740;34.694;33.088;2023-03-14T21:58:33;12.9;12.2;8.8
76043;PMS7003;64740;34.694;33.088;2023-03-14T22:04:01;13.5;12.6;9.3
76043;PMS7003;64740;34.694;33.088;2023-03-14T22:08:33;12.3;11.8;8.9
76043;PMS7003;64740;34.694;33.088;2023-03-14T22:13:53;12.9;10.9;8.1
76043;PMS7003;64740;34.694;33.088;2023-03-14T22:19:16;12.6;11.2;8.7
76043;PMS7003;64740;34.694;33.088;2023-03-14T22:23:33;12.5;10.5;7.9
76043;PMS7003;64740;34.694;33.088;2023-03-14T22:29:15;12.8;10.6;7.9
76043;PMS7003;64740;34.694;33.088;2023-03-14T22:33:35;12.4;10.9;7.8
76043;PMS7003;64740;34.694;33.088;2023-03-14T22:38:45;12.3;11;8.4
76043;PMS7003;64740;34.694;33.088;2023-03-14T22:43:41;12.9;11.5;8.6
76043;PMS7003;64740;34.694;33.088;2023-03-14T22:48:33;11.9;11;7.8
76043;PMS7003;64740;34.694;33.088;2023-03-14T22:53:33;11;9.5;6.9
76043;PMS7003;64740;34.694;33.088;2023-03-14T22:59:01;11.7;10.3;8
76043;PMS7003;64740;34.694;33.088;2023-03-14T23:04:13;10.6;9.5;7
76043;PMS7003;64740;34.694;33.088;2023-03-14T23:08:53;8.9;8.3;6
76043;PMS7003;64740;34.694;33.088;2023-03-14T23:14:15;10.5;9.4;7
76043;PMS7003;64740;34.694;33.088;2023-03-14T23:18:36;9.2;8.2;5.9
76043;PMS7003;64740;34.694;33.088;2023-03-14T23:24:07;11.4;10.5;7.9
76043;PMS7003;64740;34.694;33.088;2023-03-14T23:28:33;13;11.7;8.8
76043;PMS7003;64740;34.694;33.088;2023-03-14T23:33:39;13.7;11.8;9.3
76043;PMS7003;64740;34.694;33.088;2023-03-14T23:39:02;11;10.5;8.1
76043;PMS7003;64740;34.694;33.088;2023-03-14T23:44:01;10.1;9.1;6.7
76043;PMS7003;64740;34.694;33.088;2023-03-14T23:48:41;10.1;9.3;7
76043;PMS7003;64740;34.694;33.088;2023-03-14T23:54:15;10.2;9.3;7
76043;PMS7003;64740;34.694;33.088;2023-03-14T23:59:15;10.7;10.5;7.7
